sensor_id;sensor_type;location;lat;lon;timestamp;P1;durP1;ratioP1;P2;durP2;ratioP2
66741;SDS011;53654;54.152;19.432;2023-02-20T00:01:45;8.80;;;5.90;;
66741;SDS011;53654;54.152;19.432;2023-02-20T00:04:15;8.10;;;6.50;;
66741;SDS011;53654;54.152;19.432;2023-02-20T00:06:43;9.70;;;7.00;;
66741;SDS011;53654;54.152;19.432;2023-02-20T00:09:11;8.40;;;6.80;;
66741;SDS011;53654;54.152;19.432;2023-02-20T00:11:40;8.60;;;7.00;;
66741;SDS011;53654;54.152;19.432;2023-02-20T00:14:08;8.50;;;6.50;;
66741;SDS011;53654;54.152;19.432;2023-02-20T00:16:36;7.50;;;6.30;;
66741;SDS011;53654;54.152;19.432;2023-02-20T00:19:04;7.30;;;6.20;;
66741;SDS011;53654;54.152;19.432;2023-02-20T00:21:32;7.60;;;6.40;;
66741;SDS011;53654;54.152;19.432;2023-02-20T00:24:01;7.10;;;5.90;;
66741;SDS011;53654;54.152;19.432;2023-02-20T00:26:29;7.50;;;6.20;;
66741;SDS011;53654;54.152;19.432;2023-02-20T00:28:57;9.60;;;7.90;;
66741;SDS011;53654;54.152;19.432;2023-02-20T00:31:25;7.60;;;6.80;;
66741;SDS011;53654;54.152;19.432;2023-02-20T00:33:53;9.10;;;7.20;;
66741;SDS011;53654;54.152;19.432;2023-02-20T00:36:21;8.70;;;7.70;;
66741;SDS011;53654;54.152;19.432;2023-02-20T00:38:49;7.60;;;5.60;;
66741;SDS011;53654;54.152;19.432;2023-02-20T00:41:18;5.50;;;5.00;;
66741;SDS011;53654;54.152;19.432;2023-02-20T00:43:46;7.10;;;4.80;;
66741;SDS011;53654;54.152;19.432;2023-02-20T00:46:14;5.40;;;4.50;;
66741;SDS011;53654;54.152;19.432;2023-02-20T00:48:43;6.20;;;4.50;;
66741;SDS011;53654;54.152;19.432;2023-02-20T00:51:30;6.50;;;4.70;;
66741;SDS011;53654;54.152;19.432;2023-02-20T00:53:59;6.50;;;4.70;;
66741;SDS011;53654;54.152;19.432;2023-02-20T00:56:27;5.90;;;4.50;;
66741;SDS011;53654;54.152;19.432;2023-02-20T00:58:56;5.20;;;4.50;;
66741;SDS011;53654;54.152;19.432;2023-02-20T01:01:25;6.30;;;5.10;;
66741;SDS011;53654;54.152;19.432;2023-02-20T01:03:54;4.60;;;3.90;;
66741;SDS011;53654;54.152;19.432;2023-02-20T01:06:23;4.70;;;4.00;;
66741;SDS011;53654;54.152;19.432;2023-02-20T01:08:51;4.90;;;4.20;;
66741;SDS011;53654;54.152;19.432;2023-02-20T01:11:20;4.90;;;4.40;;
66741;SDS011;53654;54.152;19.432;2023-02-20T01:13:49;5.20;;;4.40;;
66741;SDS011;53654;54.152;19.432;2023-02-20T01:16:17;4.80;;;4.00;;
66741;SDS011;53654;54.152;19.432;2023-02-20T01:18:47;4.90;;;4.20;;
66741;SDS011;53654;54.152;19.432;2023-02-20T01:21:17;5.50;;;4.10;;
66741;SDS011;53654;54.152;19.432;2023-02-20T01:23:45;4.60;;;4.20;;
66741;SDS011;53654;54.152;19.432;2023-02-20T01:26:13;4.40;;;3.80;;
66741;SDS011;53654;54.152;19.432;2023-02-20T01:28:42;5.30;;;4.30;;
66741;SDS011;53654;54.152;19.432;2023-02-20T01:31:12;4.70;;;4.00;;
66741;SDS011;53654;54.152;19.432;2023-02-20T01:33:41;4.10;;;3.70;;
66741;SDS011;53654;54.152;19.432;2023-02-20T01:36:10;3.80;;;3.40;;
66741;SDS011;53654;54.152;19.432;2023-02-20T01:38:39;4.20;;;3.80;;
66741;SDS011;53654;54.152;19.432;2023-02-20T01:41:08;4.20;;;3.80;;
66741;SDS011;53654;54.152;19.432;2023-02-20T01:43:38;4.30;;;3.80;;
66741;SDS011;53654;54.152;19.432;2023-02-20T01:49:15;3.80;;;3.50;;
66741;SDS011;53654;54.152;19.432;2023-02-20T01:51:46;4.60;;;4.00;;
66741;SDS011;53654;54.152;19.432;2023-02-20T01:54:19;4.80;;;3.90;;
66741;SDS011;53654;54.152;19.432;2023-02-20T01:56:49;4.50;;;4.10;;
66741;SDS011;53654;54.152;19.432;2023-02-20T01:59:20;4.80;;;4.10;;
66741;SDS011;53654;54.152;19.432;2023-02-20T02:01:50;5.00;;;4.30;;
66741;SDS011;53654;54.152;19.432;2023-02-20T02:04:19;5.20;;;4.50;;
66741;SDS011;53654;54.152;19.432;2023-02-20T02:06:48;4.60;;;4.10;;
66741;SDS011;53654;54.152;19.432;2023-02-20T02:11:59;5.00;;;4.10;;
66741;SDS011;53654;54.152;19.432;2023-02-20T02:14:27;3.90;;;3.50;;
66741;SDS011;53654;54.152;19.432;2023-02-20T02:17:06;5.20;;;4.70;;
66741;SDS011;53654;54.152;19.432;2023-02-20T02:25:30;14.00;;;11.80;;
66741;SDS011;53654;54.152;19.432;2023-02-20T02:42:09;10.60;;;9.60;;
66741;SDS011;53654;54.152;19.432;2023-02-20T02:44:42;11.00;;;10.00;;
66741;SDS011;53654;54.152;19.432;2023-02-20T02:50:09;11.90;;;10.70;;
66741;SDS011;53654;54.152;19.432;2023-02-20T02:52:42;12.30;;;11.00;;
66741;SDS011;53654;54.152;19.432;2023-02-20T02:55:25;13.30;;;12.00;;
66741;SDS011;53654;54.152;19.432;2023-02-20T02:57:55;13.80;;;12.50;;
66741;SDS011;53654;54.152;19.432;2023-02-20T03:05:56;12.40;;;11.20;;
66741;SDS011;53654;54.152;19.432;2023-02-20T03:08:41;11.50;;;10.30;;
66741;SDS011;53654;54.152;19.432;2023-02-20T03:11:17;11.30;;;10.10;;
66741;SDS011;53654;54.152;19.432;2023-02-20T03:14:03;10.60;;;9.50;;
66741;SDS011;53654;54.152;19.432;2023-02-20T03:19:43;9.40;;;8.50;;
66741;SDS011;53654;54.152;19.432;2023-02-20T03:24:43;7.10;;;4.50;;
66741;SDS011;53654;54.152;19.432;2023-02-20T03:27:29;5.90;;;3.00;;
66741;SDS011;53654;54.152;19.432;2023-02-20T03:32:56;5.70;;;2.30;;
66741;SDS011;53654;54.152;19.432;2023-02-20T03:36:04;4.60;;;2.20;;
66741;SDS011;53654;54.152;19.432;2023-02-20T03:39:04;4.80;;;2.50;;
66741;SDS011;53654;54.152;19.432;2023-02-20T03:41:55;4.40;;;2.40;;
66741;SDS011;53654;54.152;19.432;2023-02-20T03:44:45;4.70;;;2.20;;
66741;SDS011;53654;54.152;19.432;2023-02-20T03:47:15;3.90;;;2.20;;
66741;SDS011;53654;54.152;19.432;2023-02-20T03:49:47;3.90;;;1.90;;
66741;SDS011;53654;54.152;19.432;2023-02-20T03:52:36;5.00;;;2.10;;
66741;SDS011;53654;54.152;19.432;2023-02-20T03:55:05;3.40;;;1.70;;
66741;SDS011;53654;54.152;19.432;2023-02-20T03:57:38;4.50;;;1.80;;
66741;SDS011;53654;54.152;19.432;2023-02-20T04:00:12;4.80;;;1.80;;
66741;SDS011;53654;54.152;19.432;2023-02-20T04:02:43;3.80;;;1.80;;
66741;SDS011;53654;54.152;19.432;2023-02-20T04:05:20;4.20;;;2.10;;
66741;SDS011;53654;54.152;19.432;2023-02-20T04:07:59;3.90;;;2.20;;
66741;SDS011;53654;54.152;19.432;2023-02-20T04:10:34;4.60;;;2.00;;
66741;SDS011;53654;54.152;19.432;2023-02-20T04:13:07;4.10;;;1.90;;
66741;SDS011;53654;54.152;19.432;2023-02-20T04:15:37;5.30;;;2.20;;
66741;SDS011;53654;54.152;19.432;2023-02-20T04:18:10;4.90;;;2.30;;
66741;SDS011;53654;54.152;19.432;2023-02-20T04:20:41;5.50;;;2.20;;
66741;SDS011;53654;54.152;19.432;2023-02-20T04:23:21;4.10;;;1.90;;
66741;SDS011;53654;54.152;19.432;2023-02-20T04:25:56;6.10;;;2.40;;
66741;SDS011;53654;54.152;19.432;2023-02-20T04:28:29;5.80;;;2.20;;
66741;SDS011;53654;54.152;19.432;2023-02-20T04:31:01;4.60;;;2.00;;
66741;SDS011;53654;54.152;19.432;2023-02-20T04:33:30;4.70;;;1.90;;
66741;SDS011;53654;54.152;19.432;2023-02-20T04:36:02;7.40;;;2.40;;
66741;SDS011;53654;54.152;19.432;2023-02-20T04:38:30;4.70;;;2.10;;
66741;SDS011;53654;54.152;19.432;2023-02-20T04:40:59;3.90;;;1.90;;
66741;SDS011;53654;54.152;19.432;2023-02-20T04:43:27;4.30;;;2.00;;
66741;SDS011;53654;54.152;19.432;2023-02-20T04:45:55;5.10;;;2.20;;
66741;SDS011;53654;54.152;19.432;2023-02-20T04:48:24;5.30;;;2.20;;
66741;SDS011;53654;54.152;19.432;2023-02-20T04:50:52;7.00;;;2.20;;
66741;SDS011;53654;54.152;19.432;2023-02-20T04:53:20;5.50;;;2.00;;
66741;SDS011;53654;54.152;19.432;2023-02-20T04:55:48;4.30;;;2.10;;
66741;SDS011;53654;54.152;19.432;2023-02-20T04:58:19;5.20;;;2.10;;
66741;SDS011;53654;54.152;19.432;2023-02-20T05:01:10;5.60;;;2.20;;
66741;SDS011;53654;54.152;19.432;2023-02-20T05:03:38;4.60;;;2.00;;
66741;SDS011;53654;54.152;19.432;2023-02-20T05:06:06;4.30;;;2.30;;
66741;SDS011;53654;54.152;19.432;2023-02-20T05:08:34;5.40;;;2.30;;
66741;SDS011;53654;54.152;19.432;2023-02-20T05:11:02;3.10;;;2.10;;
66741;SDS011;53654;54.152;19.432;2023-02-20T05:13:30;6.10;;;2.90;;
66741;SDS011;53654;54.152;19.432;2023-02-20T05:15:58;6.60;;;2.90;;
66741;SDS011;53654;54.152;19.432;2023-02-20T05:18:27;5.30;;;3.10;;
66741;SDS011;53654;54.152;19.432;2023-02-20T05:20:56;6.10;;;3.20;;
66741;SDS011;53654;54.152;19.432;2023-02-20T05:23:47;5.40;;;3.50;;
66741;SDS011;53654;54.152;19.432;2023-02-20T05:26:17;6.00;;;3.60;;
66741;SDS011;53654;54.152;19.432;2023-02-20T05:28:48;8.20;;;3.60;;
66741;SDS011;53654;54.152;19.432;2023-02-20T05:31:16;4.80;;;2.90;;
66741;SDS011;53654;54.152;19.432;2023-02-20T05:33:44;5.50;;;2.90;;
66741;SDS011;53654;54.152;19.432;2023-02-20T05:36:12;5.90;;;2.80;;
66741;SDS011;53654;54.152;19.432;2023-02-20T05:38:41;4.70;;;2.60;;
66741;SDS011;53654;54.152;19.432;2023-02-20T05:41:15;4.80;;;2.30;;
66741;SDS011;53654;54.152;19.432;2023-02-20T05:43:44;3.20;;;2.40;;
66741;SDS011;53654;54.152;19.432;2023-02-20T05:46:12;5.40;;;2.50;;
66741;SDS011;53654;54.152;19.432;2023-02-20T05:48:42;5.50;;;2.30;;
66741;SDS011;53654;54.152;19.432;2023-02-20T05:51:18;5.20;;;2.60;;
66741;SDS011;53654;54.152;19.432;2023-02-20T05:53:56;6.60;;;3.30;;
66741;SDS011;53654;54.152;19.432;2023-02-20T05:56:24;5.30;;;2.40;;
66741;SDS011;53654;54.152;19.432;2023-02-20T05:58:52;4.10;;;2.40;;
66741;SDS011;53654;54.152;19.432;2023-02-20T06:01:24;4.20;;;2.10;;
66741;SDS011;53654;54.152;19.432;2023-02-20T06:03:54;4.80;;;2.20;;
66741;SDS011;53654;54.152;19.432;2023-02-20T06:06:22;5.70;;;2.50;;
66741;SDS011;53654;54.152;19.432;2023-02-20T06:08:51;4.80;;;2.50;;
66741;SDS011;53654;54.152;19.432;2023-02-20T06:11:19;5.20;;;2.50;;
66741;SDS011;53654;54.152;19.432;2023-02-20T06:13:47;3.70;;;2.30;;
66741;SDS011;53654;54.152;19.432;2023-02-20T06:16:20;4.00;;;2.30;;
66741;SDS011;53654;54.152;19.432;2023-02-20T06:18:50;5.20;;;2.40;;
66741;SDS011;53654;54.152;19.432;2023-02-20T06:21:19;6.00;;;2.60;;
66741;SDS011;53654;54.152;19.432;2023-02-20T06:23:50;5.10;;;2.60;;
66741;SDS011;53654;54.152;19.432;2023-02-20T06:26:20;6.20;;;2.50;;
66741;SDS011;53654;54.152;19.432;2023-02-20T06:28:49;4.60;;;2.60;;
66741;SDS011;53654;54.152;19.432;2023-02-20T06:31:21;5.70;;;2.30;;
66741;SDS011;53654;54.152;19.432;2023-02-20T06:33:52;4.40;;;2.50;;
66741;SDS011;53654;54.152;19.432;2023-02-20T06:36:22;5.60;;;3.90;;
66741;SDS011;53654;54.152;19.432;2023-02-20T06:38:53;8.00;;;4.70;;
66741;SDS011;53654;54.152;19.432;2023-02-20T06:41:24;6.10;;;3.60;;
66741;SDS011;53654;54.152;19.432;2023-02-20T06:43:53;4.90;;;2.70;;
66741;SDS011;53654;54.152;19.432;2023-02-20T06:46:21;4.30;;;3.10;;
66741;SDS011;53654;54.152;19.432;2023-02-20T06:48:51;5.90;;;3.50;;
66741;SDS011;53654;54.152;19.432;2023-02-20T06:51:29;6.40;;;3.30;;
66741;SDS011;53654;54.152;19.432;2023-02-20T06:53:59;5.50;;;3.40;;
66741;SDS011;53654;54.152;19.432;2023-02-20T06:56:30;5.80;;;3.50;;
66741;SDS011;53654;54.152;19.432;2023-02-20T06:59:01;6.00;;;3.40;;
66741;SDS011;53654;54.152;19.432;2023-02-20T07:01:35;4.80;;;3.20;;
66741;SDS011;53654;54.152;19.432;2023-02-20T07:04:15;6.10;;;4.00;;
66741;SDS011;53654;54.152;19.432;2023-02-20T07:06:48;5.30;;;3.10;;
66741;SDS011;53654;54.152;19.432;2023-02-20T07:09:16;5.00;;;3.10;;
66741;SDS011;53654;54.152;19.432;2023-02-20T07:11:46;6.40;;;3.40;;
66741;SDS011;53654;54.152;19.432;2023-02-20T07:14:18;5.10;;;3.20;;
66741;SDS011;53654;54.152;19.432;2023-02-20T07:16:46;5.10;;;3.10;;
66741;SDS011;53654;54.152;19.432;2023-02-20T07:19:14;5.70;;;3.50;;
66741;SDS011;53654;54.152;19.432;2023-02-20T07:21:44;4.10;;;3.20;;
66741;SDS011;53654;54.152;19.432;2023-02-20T07:24:13;5.00;;;3.20;;
66741;SDS011;53654;54.152;19.432;2023-02-20T07:26:41;5.30;;;3.60;;
66741;SDS011;53654;54.152;19.432;2023-02-20T07:29:11;6.70;;;3.50;;
66741;SDS011;53654;54.152;19.432;2023-02-20T07:31:39;4.50;;;3.30;;
66741;SDS011;53654;54.152;19.432;2023-02-20T07:34:07;4.10;;;3.10;;
66741;SDS011;53654;54.152;19.432;2023-02-20T07:36:36;5.80;;;3.80;;
66741;SDS011;53654;54.152;19.432;2023-02-20T07:39:05;5.20;;;3.40;;
66741;SDS011;53654;54.152;19.432;2023-02-20T07:41:36;5.50;;;3.20;;
66741;SDS011;53654;54.152;19.432;2023-02-20T07:44:05;6.60;;;3.50;;
66741;SDS011;53654;54.152;19.432;2023-02-20T07:46:34;4.60;;;3.10;;
66741;SDS011;53654;54.152;19.432;2023-02-20T07:49:02;5.70;;;3.30;;
66741;SDS011;53654;54.152;19.432;2023-02-20T07:51:32;5.80;;;3.50;;
66741;SDS011;53654;54.152;19.432;2023-02-20T07:54:00;6.10;;;3.40;;
66741;SDS011;53654;54.152;19.432;2023-02-20T07:56:30;5.30;;;3.00;;
66741;SDS011;53654;54.152;19.432;2023-02-20T07:58:58;4.80;;;3.30;;
66741;SDS011;53654;54.152;19.432;2023-02-20T08:01:27;6.00;;;3.50;;
66741;SDS011;53654;54.152;19.432;2023-02-20T08:03:56;5.00;;;3.40;;
66741;SDS011;53654;54.152;19.432;2023-02-20T08:06:24;6.60;;;3.50;;
66741;SDS011;53654;54.152;19.432;2023-02-20T08:08:52;4.70;;;3.20;;
66741;SDS011;53654;54.152;19.432;2023-02-20T08:11:21;4.80;;;3.30;;
66741;SDS011;53654;54.152;19.432;2023-02-20T08:13:50;5.50;;;3.70;;
66741;SDS011;53654;54.152;19.432;2023-02-20T08:16:22;5.40;;;3.40;;
66741;SDS011;53654;54.152;19.432;2023-02-20T08:18:52;5.50;;;3.30;;
66741;SDS011;53654;54.152;19.432;2023-02-20T08:21:20;6.30;;;3.50;;
66741;SDS011;53654;54.152;19.432;2023-02-20T08:23:49;5.30;;;3.40;;
66741;SDS011;53654;54.152;19.432;2023-02-20T08:26:19;5.60;;;3.50;;
66741;SDS011;53654;54.152;19.432;2023-02-20T08:28:48;4.70;;;3.20;;
66741;SDS011;53654;54.152;19.432;2023-02-20T08:31:16;5.40;;;3.50;;
66741;SDS011;53654;54.152;19.432;2023-02-20T08:33:58;5.70;;;3.90;;
66741;SDS011;53654;54.152;19.432;2023-02-20T08:36:27;4.70;;;3.40;;
66741;SDS011;53654;54.152;19.432;2023-02-20T08:38:55;6.70;;;3.70;;
66741;SDS011;53654;54.152;19.432;2023-02-20T08:41:24;4.70;;;3.30;;
66741;SDS011;53654;54.152;19.432;2023-02-20T08:43:52;4.90;;;3.30;;
66741;SDS011;53654;54.152;19.432;2023-02-20T08:46:21;4.10;;;3.50;;
66741;SDS011;53654;54.152;19.432;2023-02-20T08:48:49;4.00;;;3.30;;
66741;SDS011;53654;54.152;19.432;2023-02-20T08:51:18;6.40;;;3.30;;
66741;SDS011;53654;54.152;19.432;2023-02-20T08:53:48;3.80;;;3.10;;
66741;SDS011;53654;54.152;19.432;2023-02-20T08:56:17;3.70;;;3.40;;
66741;SDS011;53654;54.152;19.432;2023-02-20T08:58:47;3.90;;;3.40;;
66741;SDS011;53654;54.152;19.432;2023-02-20T09:01:15;4.00;;;3.60;;
66741;SDS011;53654;54.152;19.432;2023-02-20T09:03:43;4.10;;;3.70;;
66741;SDS011;53654;54.152;19.432;2023-02-20T09:06:11;4.20;;;3.80;;
66741;SDS011;53654;54.152;19.432;2023-02-20T09:08:40;4.20;;;3.80;;
66741;SDS011;53654;54.152;19.432;2023-02-20T09:11:08;4.40;;;4.10;;
66741;SDS011;53654;54.152;19.432;2023-02-20T09:13:42;4.80;;;4.40;;
66741;SDS011;53654;54.152;19.432;2023-02-20T09:16:13;4.60;;;4.20;;
66741;SDS011;53654;54.152;19.432;2023-02-20T09:18:44;4.60;;;4.20;;
66741;SDS011;53654;54.152;19.432;2023-02-20T09:21:15;4.70;;;4.30;;
66741;SDS011;53654;54.152;19.432;2023-02-20T09:23:45;5.10;;;4.60;;
66741;SDS011;53654;54.152;19.432;2023-02-20T09:26:14;5.10;;;4.60;;
66741;SDS011;53654;54.152;19.432;2023-02-20T09:28:42;5.30;;;4.90;;
66741;SDS011;53654;54.152;19.432;2023-02-20T09:31:10;5.70;;;5.20;;
66741;SDS011;53654;54.152;19.432;2023-02-20T09:33:42;5.80;;;5.20;;
66741;SDS011;53654;54.152;19.432;2023-02-20T09:36:17;5.70;;;5.20;;
66741;SDS011;53654;54.152;19.432;2023-02-20T09:38:46;5.60;;;5.10;;
66741;SDS011;53654;54.152;19.432;2023-02-20T09:41:21;6.20;;;5.60;;
66741;SDS011;53654;54.152;19.432;2023-02-20T09:44:11;6.40;;;5.90;;
66741;SDS011;53654;54.152;19.432;2023-02-20T09:46:59;6.00;;;5.50;;
66741;SDS011;53654;54.152;19.432;2023-02-20T09:49:33;6.00;;;5.40;;
66741;SDS011;53654;54.152;19.432;2023-02-20T09:52:04;6.80;;;6.10;;
66741;SDS011;53654;54.152;19.432;2023-02-20T09:54:40;5.70;;;5.20;;
66741;SDS011;53654;54.152;19.432;2023-02-20T09:57:15;5.90;;;5.30;;
66741;SDS011;53654;54.152;19.432;2023-02-20T09:59:48;5.30;;;4.80;;
66741;SDS011;53654;54.152;19.432;2023-02-20T10:02:21;5.60;;;5.10;;
66741;SDS011;53654;54.152;19.432;2023-02-20T10:04:57;6.30;;;5.70;;
66741;SDS011;53654;54.152;19.432;2023-02-20T10:07:32;6.00;;;5.50;;
66741;SDS011;53654;54.152;19.432;2023-02-20T10:23:33;6.40;;;5.90;;
66741;SDS011;53654;54.152;19.432;2023-02-20T10:26:16;6.10;;;5.50;;
66741;SDS011;53654;54.152;19.432;2023-02-20T10:28:49;6.30;;;5.70;;
66741;SDS011;53654;54.152;19.432;2023-02-20T10:36:53;6.10;;;5.60;;
66741;SDS011;53654;54.152;19.432;2023-02-20T10:39:27;6.00;;;5.50;;
66741;SDS011;53654;54.152;19.432;2023-02-20T10:42:05;6.80;;;6.20;;
66741;SDS011;53654;54.152;19.432;2023-02-20T10:44:55;6.50;;;5.90;;
66741;SDS011;53654;54.152;19.432;2023-02-20T10:50:04;7.00;;;6.30;;
66741;SDS011;53654;54.152;19.432;2023-02-20T10:52:41;7.80;;;7.10;;
66741;SDS011;53654;54.152;19.432;2023-02-20T10:58:25;8.50;;;7.20;;
66741;SDS011;53654;54.152;19.432;2023-02-20T11:01:02;8.40;;;7.70;;
66741;SDS011;53654;54.152;19.432;2023-02-20T11:03:36;7.60;;;6.90;;
66741;SDS011;53654;54.152;19.432;2023-02-20T11:06:08;7.90;;;7.20;;
66741;SDS011;53654;54.152;19.432;2023-02-20T11:08:41;7.80;;;7.10;;
66741;SDS011;53654;54.152;19.432;2023-02-20T11:11:32;7.80;;;7.10;;
66741;SDS011;53654;54.152;19.432;2023-02-20T11:16:51;7.90;;;7.20;;
66741;SDS011;53654;54.152;19.432;2023-02-20T11:19:26;8.30;;;7.60;;
66741;SDS011;53654;54.152;19.432;2023-02-20T11:21:58;8.00;;;7.30;;
66741;SDS011;53654;54.152;19.432;2023-02-20T11:27:06;8.30;;;7.60;;
66741;SDS011;53654;54.152;19.432;2023-02-20T11:32:32;9.80;;;8.90;;
66741;SDS011;53654;54.152;19.432;2023-02-20T11:40:46;9.20;;;8.40;;
66741;SDS011;53654;54.152;19.432;2023-02-20T11:51:43;10.10;;;9.20;;
66741;SDS011;53654;54.152;19.432;2023-02-20T11:59:36;10.90;;;9.90;;
66741;SDS011;53654;54.152;19.432;2023-02-20T12:12:51;12.50;;;11.40;;
66741;SDS011;53654;54.152;19.432;2023-02-20T12:15:25;12.90;;;11.80;;
66741;SDS011;53654;54.152;19.432;2023-02-20T12:23:53;13.70;;;12.50;;
66741;SDS011;53654;54.152;19.432;2023-02-20T12:26:37;12.80;;;11.70;;
66741;SDS011;53654;54.152;19.432;2023-02-20T12:32:00;13.60;;;12.30;;
66741;SDS011;53654;54.152;19.432;2023-02-20T12:37:36;14.00;;;12.70;;
66741;SDS011;53654;54.152;19.432;2023-02-20T12:42:56;14.30;;;13.00;;
66741;SDS011;53654;54.152;19.432;2023-02-20T12:51:28;21.60;;;19.60;;
66741;SDS011;53654;54.152;19.432;2023-02-20T12:59:52;16.10;;;14.40;;
66741;SDS011;53654;54.152;19.432;2023-02-20T13:02:37;13.00;;;11.60;;
66741;SDS011;53654;54.152;19.432;2023-02-20T13:05:12;10.80;;;9.80;;
66741;SDS011;53654;54.152;19.432;2023-02-20T13:07:51;10.30;;;9.20;;
66741;SDS011;53654;54.152;19.432;2023-02-20T13:12:51;11.10;;;9.90;;
66741;SDS011;53654;54.152;19.432;2023-02-20T13:18:16;10.90;;;9.20;;
66741;SDS011;53654;54.152;19.432;2023-02-20T13:20:56;12.70;;;9.70;;
66741;SDS011;53654;54.152;19.432;2023-02-20T13:23:30;15.50;;;10.60;;
66741;SDS011;53654;54.152;19.432;2023-02-20T13:26:01;13.10;;;11.00;;
66741;SDS011;53654;54.152;19.432;2023-02-20T13:28:40;14.80;;;12.30;;
66741;SDS011;53654;54.152;19.432;2023-02-20T13:34:21;12.70;;;9.60;;
66741;SDS011;53654;54.152;19.432;2023-02-20T13:47:44;13.00;;;11.50;;
66741;SDS011;53654;54.152;19.432;2023-02-20T13:49:55;13.00;;;11.60;;
66741;SDS011;53654;54.152;19.432;2023-02-20T13:57:51;11.40;;;9.30;;
66741;SDS011;53654;54.152;19.432;2023-02-20T14:03:12;10.60;;;8.40;;
66741;SDS011;53654;54.152;19.432;2023-02-20T14:05:45;10.30;;;8.60;;
66741;SDS011;53654;54.152;19.432;2023-02-20T14:08:17;10.70;;;8.90;;
66741;SDS011;53654;54.152;19.432;2023-02-20T14:10:46;11.60;;;9.20;;
66741;SDS011;53654;54.152;19.432;2023-02-20T14:13:19;13.30;;;9.60;;
66741;SDS011;53654;54.152;19.432;2023-02-20T14:21:47;12.50;;;10.80;;
66741;SDS011;53654;54.152;19.432;2023-02-20T14:24:27;13.40;;;11.30;;
66741;SDS011;53654;54.152;19.432;2023-02-20T14:26:56;13.80;;;11.80;;
66741;SDS011;53654;54.152;19.432;2023-02-20T14:31:53;14.40;;;12.40;;
66741;SDS011;53654;54.152;19.432;2023-02-20T14:40:37;11.40;;;8.80;;
66741;SDS011;53654;54.152;19.432;2023-02-20T14:45:43;7.70;;;6.90;;
66741;SDS011;53654;54.152;19.432;2023-02-20T14:48:23;9.40;;;7.20;;
66741;SDS011;53654;54.152;19.432;2023-02-20T14:51:29;8.30;;;6.60;;
66741;SDS011;53654;54.152;19.432;2023-02-20T14:54:01;7.40;;;6.20;;
66741;SDS011;53654;54.152;19.432;2023-02-20T14:56:50;7.40;;;5.40;;
66741;SDS011;53654;54.152;19.432;2023-02-20T14:59:27;7.70;;;6.20;;
66741;SDS011;53654;54.152;19.432;2023-02-20T15:01:56;8.40;;;6.40;;
66741;SDS011;53654;54.152;19.432;2023-02-20T15:05:05;7.50;;;6.70;;
66741;SDS011;53654;54.152;19.432;2023-02-20T15:07:37;7.00;;;6.10;;
66741;SDS011;53654;54.152;19.432;2023-02-20T15:10:27;7.40;;;6.10;;
66741;SDS011;53654;54.152;19.432;2023-02-20T15:13:07;6.70;;;5.90;;
66741;SDS011;53654;54.152;19.432;2023-02-20T15:15:38;8.60;;;6.50;;
66741;SDS011;53654;54.152;19.432;2023-02-20T15:18:11;7.70;;;6.00;;
66741;SDS011;53654;54.152;19.432;2023-02-20T15:20:44;7.30;;;5.60;;
66741;SDS011;53654;54.152;19.432;2023-02-20T15:23:23;7.00;;;5.70;;
66741;SDS011;53654;54.152;19.432;2023-02-20T15:25:55;6.90;;;5.20;;
66741;SDS011;53654;54.152;19.432;2023-02-20T15:28:25;8.80;;;5.90;;
66741;SDS011;53654;54.152;19.432;2023-02-20T15:31:04;9.50;;;6.00;;
66741;SDS011;53654;54.152;19.432;2023-02-20T15:33:53;9.60;;;6.20;;
66741;SDS011;53654;54.152;19.432;2023-02-20T15:36:22;7.00;;;6.30;;
66741;SDS011;53654;54.152;19.432;2023-02-20T15:38:53;7.80;;;6.30;;
66741;SDS011;53654;54.152;19.432;2023-02-20T15:41:23;9.20;;;6.90;;
66741;SDS011;53654;54.152;19.432;2023-02-20T15:43:51;8.60;;;6.70;;
66741;SDS011;53654;54.152;19.432;2023-02-20T15:46:20;8.60;;;7.70;;
66741;SDS011;53654;54.152;19.432;2023-02-20T15:48:48;9.00;;;7.60;;
66741;SDS011;53654;54.152;19.432;2023-02-20T15:51:18;8.80;;;7.50;;
66741;SDS011;53654;54.152;19.432;2023-02-20T15:53:50;7.40;;;6.70;;
66741;SDS011;53654;54.152;19.432;2023-02-20T15:56:20;8.50;;;7.00;;
66741;SDS011;53654;54.152;19.432;2023-02-20T15:58:48;9.40;;;7.90;;
66741;SDS011;53654;54.152;19.432;2023-02-20T16:01:17;10.80;;;9.20;;
66741;SDS011;53654;54.152;19.432;2023-02-20T16:03:46;7.10;;;6.20;;
66741;SDS011;53654;54.152;19.432;2023-02-20T16:06:20;7.20;;;6.60;;
66741;SDS011;53654;54.152;19.432;2023-02-20T16:08:50;6.90;;;5.90;;
66741;SDS011;53654;54.152;19.432;2023-02-20T16:11:20;4.40;;;3.60;;
66741;SDS011;53654;54.152;19.432;2023-02-20T16:13:52;4.20;;;3.80;;
66741;SDS011;53654;54.152;19.432;2023-02-20T16:16:42;5.50;;;4.30;;
66741;SDS011;53654;54.152;19.432;2023-02-20T16:19:16;5.70;;;4.70;;
66741;SDS011;53654;54.152;19.432;2023-02-20T16:21:45;5.20;;;4.10;;
66741;SDS011;53654;54.152;19.432;2023-02-20T16:24:26;3.90;;;3.50;;
66741;SDS011;53654;54.152;19.432;2023-02-20T16:26:54;4.20;;;3.80;;
66741;SDS011;53654;54.152;19.432;2023-02-20T16:29:32;4.40;;;3.60;;
66741;SDS011;53654;54.152;19.432;2023-02-20T16:34:31;6.80;;;5.60;;
66741;SDS011;53654;54.152;19.432;2023-02-20T16:37:01;5.80;;;4.80;;
66741;SDS011;53654;54.152;19.432;2023-02-20T16:39:30;3.90;;;3.50;;
66741;SDS011;53654;54.152;19.432;2023-02-20T16:41:58;4.80;;;4.30;;
66741;SDS011;53654;54.152;19.432;2023-02-20T16:44:34;4.50;;;3.90;;
66741;SDS011;53654;54.152;19.432;2023-02-20T16:47:13;3.20;;;2.90;;
66741;SDS011;53654;54.152;19.432;2023-02-20T16:49:47;3.60;;;2.70;;
66741;SDS011;53654;54.152;19.432;2023-02-20T16:52:23;2.50;;;2.20;;
66741;SDS011;53654;54.152;19.432;2023-02-20T16:54:54;3.20;;;2.80;;
66741;SDS011;53654;54.152;19.432;2023-02-20T16:57:23;3.60;;;2.90;;
66741;SDS011;53654;54.152;19.432;2023-02-20T16:59:53;3.50;;;2.70;;
66741;SDS011;53654;54.152;19.432;2023-02-20T17:02:26;3.40;;;2.90;;
66741;SDS011;53654;54.152;19.432;2023-02-20T17:04:57;4.70;;;3.90;;
66741;SDS011;53654;54.152;19.432;2023-02-20T17:07:26;3.30;;;3.00;;
66741;SDS011;53654;54.152;19.432;2023-02-20T17:09:54;3.70;;;3.30;;
66741;SDS011;53654;54.152;19.432;2023-02-20T17:12:23;3.90;;;3.20;;
66741;SDS011;53654;54.152;19.432;2023-02-20T17:14:52;5.30;;;3.70;;
66741;SDS011;53654;54.152;19.432;2023-02-20T17:17:20;4.30;;;3.20;;
66741;SDS011;53654;54.152;19.432;2023-02-20T17:19:49;4.70;;;3.10;;
66741;SDS011;53654;54.152;19.432;2023-02-20T17:22:20;4.30;;;3.40;;
66741;SDS011;53654;54.152;19.432;2023-02-20T17:24:49;3.80;;;3.30;;
66741;SDS011;53654;54.152;19.432;2023-02-20T17:27:18;5.30;;;3.80;;
66741;SDS011;53654;54.152;19.432;2023-02-20T17:29:46;6.70;;;3.90;;
66741;SDS011;53654;54.152;19.432;2023-02-20T17:32:15;6.70;;;4.20;;
66741;SDS011;53654;54.152;19.432;2023-02-20T17:34:44;7.20;;;5.00;;
66741;SDS011;53654;54.152;19.432;2023-02-20T17:37:12;7.30;;;4.70;;
66741;SDS011;53654;54.152;19.432;2023-02-20T17:39:41;8.20;;;4.30;;
66741;SDS011;53654;54.152;19.432;2023-02-20T17:42:09;6.60;;;4.20;;
66741;SDS011;53654;54.152;19.432;2023-02-20T17:44:39;6.70;;;4.00;;
66741;SDS011;53654;54.152;19.432;2023-02-20T17:47:07;8.30;;;4.10;;
66741;SDS011;53654;54.152;19.432;2023-02-20T17:49:37;9.00;;;5.00;;
66741;SDS011;53654;54.152;19.432;2023-02-20T17:52:08;8.50;;;4.70;;
66741;SDS011;53654;54.152;19.432;2023-02-20T17:54:37;9.70;;;5.20;;
66741;SDS011;53654;54.152;19.432;2023-02-20T17:57:08;9.10;;;5.10;;
66741;SDS011;53654;54.152;19.432;2023-02-20T17:59:37;6.80;;;4.20;;